WetterOnline ( https://www.wetteronline.de )

Wetter aktuell Laichingen

Aktuelles Wetter: Ulm-Mähringen (592m)

6-stündlich | Neueste Meldungen
Ortszeit Temperatur Wetter
Di, 05.03. 13:00 7.1° C Sprühregen
Di, 05.03. 7:00 5.2° C bedeckt
Di, 05.03. 1:00 5.3° C bedeckt
Mo, 04.03. 19:00 6.2° C bedeckt
Mo, 04.03. 13:00 6.9° C bedeckt
Mo, 04.03. 7:00 5.9° C bedeckt
Mo, 04.03. 1:00 2.6° C bedeckt
So, 03.03. 19:00 7.5° C leicht bewölkt
Ortszeit Temperatur Wetter
Di, 05.03. 14:30 5.8° C leichter Regen
Di, 05.03. 14:20 5.8° C leichter Regen
Di, 05.03. 14:10 5.9° C leichter Regen
Di, 05.03. 14:00 5.8° C Regen
Di, 05.03. 13:50 5.8° C bedeckt
Di, 05.03. 13:40 5.7° C leichter Regen
Di, 05.03. 13:30 5.9° C Sprühregen
Di, 05.03. 13:00 7.1° C Sprühregen
Di, 05.03. 12:30 7.3° C bedeckt
Di, 05.03. 12:00 7.4° C bedeckt
Di, 05.03. 11:30 7.2° C bedeckt
Ortszeit Relative Feuchte Sichtweite
Di, 05.03. 13:00 79% 30 km
Di, 05.03. 7:00 95% 4.6 km
Di, 05.03. 1:00 94% 5.0 km
Mo, 04.03. 19:00 93% 8 km
Mo, 04.03. 13:00 86% 24 km
Mo, 04.03. 7:00 90% 12 km
Mo, 04.03. 1:00 96% 9 km
So, 03.03. 19:00 85% 25 km
Ortszeit Relative Feuchte Sichtweite
Di, 05.03. 14:30 84% 50 km
Di, 05.03. 14:20 84% -
Di, 05.03. 14:10 82% -
Di, 05.03. 14:00 91% 24 km
Di, 05.03. 13:50 91% -
Di, 05.03. 13:40 91% -
Di, 05.03. 13:30 90% 22 km
Di, 05.03. 13:00 79% 30 km
Di, 05.03. 12:30 79% 30 km
Di, 05.03. 12:00 81% 30 km
Di, 05.03. 11:30 85% 16 km
Ortszeit Niederschlagsmenge Niederschlagsart
Di, 05.03. 13:00 2 l/m2 in 6 Std. Regen
Di, 05.03. 7:00 0.1 l/m2 in 12 Std. Sprühregen
Di, 05.03. 1:00 0.0 l/m2 in 6 Std. -
Mo, 04.03. 19:00 0.1 l/m2 in 12 Std. -
Mo, 04.03. 13:00 0.1 l/m2 in 6 Std. Sprühregen
Mo, 04.03. 7:00 0.0 l/m2 in 12 Std. -
Mo, 04.03. 1:00 0.0 l/m2 in 6 Std. -
So, 03.03. 19:00 0.0 l/m2 in 12 Std. -
Ortszeit Niederschlagsmenge Niederschlagsart
Di, 05.03. 14:30 <0.05 l/m2 in 30 Min -
Di, 05.03. 14:20 keine Meldung -
Di, 05.03. 14:10 keine Meldung -
Di, 05.03. 14:00 <0.05 l/m2 in 1 Std. Regen
Di, 05.03. 13:50 keine Meldung -
Di, 05.03. 13:40 keine Meldung -
Di, 05.03. 13:30 <0.05 l/m2 in 30 Min -
Di, 05.03. 13:00 <0.05 l/m2 in 1 Std. Regen
Di, 05.03. 12:30 <0.05 l/m2 in 30 Min Schneeregen
Di, 05.03. 12:00 <0.05 l/m2 in 1 Std. Regen
Di, 05.03. 11:30 <0.05 l/m2 in 30 Min Schneeregen
Ortszeit Stärke Spitze Richtung
km/h Bft. km/h Grad Sektor
Di, 05.03. 13:00 7 2 18 270° W
Di, 05.03. 7:00 7 2 14 220° SW
Di, 05.03. 1:00 7 2 14 330° NW
Mo, 04.03. 19:00 4 1 18 340° N
Mo, 04.03. 13:00 9 2 26 300° NW
Mo, 04.03. 7:00 14 3 25 320° NW
Mo, 04.03. 1:00 7 2 14 300° NW
So, 03.03. 19:00 6 1 19 330° NW
Ortszeit Stärke Spitze Richtung
km/h Bft. km/h Grad Sektor
Di, 05.03. 14:30 11 2 22 280° W
Di, 05.03. 14:20 11 2 - 280° W
Di, 05.03. 14:10 14 3 - 270° W
Di, 05.03. 14:00 9 2 20 230° SW
Di, 05.03. 13:50 9 2 - 230° SW
Di, 05.03. 13:40 9 2 - 220° SW
Di, 05.03. 13:30 11 2 22 210° SW
Di, 05.03. 13:00 7 2 18 270° W
Di, 05.03. 12:30 7 2 14 290° W
Di, 05.03. 12:00 6 1 17 280° W
Di, 05.03. 11:30 9 2 17 240° SW
Ortszeit Untergrenze Bedeckung Gattung
total tief tief mittel hoch
Di, 05.03. 13:00 540 m 8/8 8/8 - - -
Di, 05.03. 7:00 1140 m 8/8 8/8 - - -
Di, 05.03. 1:00 150 m 8/8 8/8 - - -
Mo, 04.03. 19:00 210 m 8/8 8/8 - - -
Mo, 04.03. 13:00 270 m 8/8 8/8 - - -
Mo, 04.03. 7:00 270 m 8/8 8/8 - - -
Mo, 04.03. 1:00 3000 m 8/8 8/8 - - -
So, 03.03. 19:00 9000 m 4/8 0/8 - - -
Ortszeit Bedeckungsgrad in Achtel und Wolkenuntergrenze
Di, 05.03. 14:30 4(480m) 7(690m) 8(1080m)
Di, 05.03. 14:20 4(480m) 7(690m) 8(1080m)
Di, 05.03. 14:10 8
Di, 05.03. 14:00 6(480m) 8(660m)
Di, 05.03. 13:50 6(480m) 8(660m)
Di, 05.03. 13:40 7
Di, 05.03. 13:30 7(510m) 8(690m)
Di, 05.03. 13:00 4(540m) 6(690m) 8(960m)
Di, 05.03. 12:30 5(570m) 8(1050m)
Di, 05.03. 12:00 5(540m) 7(780m) 8(2400m)
Di, 05.03. 11:30 4(360m) 7(1110m) 8(2400m)
Ortszeit Luftdruck NN (hPa) Tendenz (hPa in 3 Std.)
Di, 05.03. 13:00 1015 + 0,3
Di, 05.03. 7:00 1015 + 0,7
Di, 05.03. 1:00 1014 + 0,5
Mo, 04.03. 19:00 1012 + 0,7
Mo, 04.03. 13:00 1011 + 1,0
Mo, 04.03. 7:00 1009 + 2,7
Mo, 04.03. 1:00 1005 + 1,3
So, 03.03. 19:00 1000 + 0,7
Ortszeit Luftdruck NN (hPa) Tendenz (hPa in 3 Std.)
Di, 05.03. 14:30 1016 + 0,1
Di, 05.03. 14:20 1016 keine Meldung
Di, 05.03. 14:10 1016 keine Meldung
Di, 05.03. 14:00 1015 + 0,1
Di, 05.03. 13:50 1015 keine Meldung
Di, 05.03. 13:40 1015 keine Meldung
Di, 05.03. 13:30 1015 + 0,1
Di, 05.03. 13:00 1015 + 0,3
Di, 05.03. 12:30 1015 0,0
Di, 05.03. 12:00 1015 + 0,4
Di, 05.03. 11:30 1015 + 0,4
Ortszeit Schneehöhe (cm)
Di, 05.03. 13:00 0
Di, 05.03. 7:00 0
Di, 05.03. 1:00 0
Mo, 04.03. 19:00 0
Mo, 04.03. 13:00 0
Mo, 04.03. 7:00 0
Mo, 04.03. 1:00 0
So, 03.03. 19:00 0
Ortszeit Schneehöhe (cm)
Di, 05.03. 14:30 0
Di, 05.03. 14:20 0
Di, 05.03. 14:10 -
Di, 05.03. 14:00 0
Di, 05.03. 13:50 0
Di, 05.03. 13:40 -
Di, 05.03. 13:30 0
Di, 05.03. 13:00 0
Di, 05.03. 12:30 0
Di, 05.03. 12:00 0
Di, 05.03. 11:30 0
Link zu dieser Seite / Seite empfehlen

Das Wetter in ...